Time;durP1;ratioP1;P1;durP2;ratioP2;P2;SDS_P1;SDS_P2;PMS_P1;PMS_P2;Temp;Humidity;BMP_temperature;BMP_pressure;BME280_temperature;BME280_humidity;BME280_pressure;Samples;Min_cycle;Max_cycle;Signal;HPM_P1;HPM_P2
2022/01/08 00:01:49;;;;;;;2.53;1.15;;;15.10;74.40;;;;;;4096138;28;20055;-65
2022/01/08 00:04:12;;;;;;;3.58;1.48;;;15.10;74.50;;;;;;4109910;28;20123;-65
2022/01/08 00:06:35;;;;;;;1.70;1.20;;;15.10;74.60;;;;;;4112051;28;20054;-64
2022/01/08 00:09:00;;;;;;;3.45;1.50;;;15.10;74.40;;;;;;4112016;28;20058;-65
2022/01/08 00:11:26;;;;;;;3.05;1.30;;;15.00;74.50;;;;;;4111781;28;20172;-64
2022/01/08 00:13:49;;;;;;;2.38;1.20;;;15.00;74.80;;;;;;4122520;28;20054;-64
2022/01/08 00:16:11;;;;;;;3.85;1.17;;;15.00;74.70;;;;;;4128404;28;20050;-65
2022/01/08 00:18:35;;;;;;;1.83;1.15;;;15.00;75.00;;;;;;4123052;28;20098;-64
2022/01/08 00:20:58;;;;;;;4.05;1.38;;;15.00;74.60;;;;;;4110424;28;20443;-67
2022/01/08 00:23:20;;;;;;;3.08;1.15;;;14.90;74.70;;;;;;4120368;28;20058;-67
2022/01/08 00:25:45;;;;;;;1.92;1.38;;;14.90;74.70;;;;;;4127999;28;20498;-67
2022/01/08 00:28:08;;;;;;;2.85;1.20;;;14.90;74.60;;;;;;4113417;28;20051;-67
2022/01/08 00:30:31;;;;;;;3.13;1.30;;;14.90;74.80;;;;;;4112041;28;21202;-66
2022/01/08 00:32:54;;;;;;;4.97;1.17;;;14.90;74.60;;;;;;4112227;28;20047;-66
2022/01/08 00:35:17;;;;;;;2.38;1.17;;;14.90;74.50;;;;;;4111325;28;20051;-67
2022/01/08 00:37:41;;;;;;;3.42;1.05;;;14.90;74.60;;;;;;4111845;28;20051;-67
2022/01/08 00:40:04;;;;;;;2.25;0.90;;;14.90;75.60;;;;;;4112324;28;20795;-67
2022/01/08 00:42:29;;;;;;;4.00;1.17;;;14.80;74.90;;;;;;4115113;28;20050;-68
2022/01/08 00:44:52;;;;;;;2.15;1.00;;;14.80;74.90;;;;;;4126805;28;20443;-67
2022/01/08 00:47:15;;;;;;;2.05;1.00;;;14.80;75.10;;;;;;4127961;28;20111;-67
2022/01/08 00:49:38;;;;;;;2.85;1.15;;;14.80;75.10;;;;;;4115737;28;20054;-67
2022/01/08 00:52:01;;;;;;;2.55;1.42;;;14.80;75.50;;;;;;4111425;28;20530;-67
2022/01/08 00:54:24;;;;;;;2.88;1.05;;;14.90;75.40;;;;;;4096011;28;20397;-68
2022/01/08 00:56:48;;;;;;;2.25;1.02;;;15.00;75.10;;;;;;4095855;28;20106;-67
2022/01/08 00:59:13;;;;;;;2.55;1.15;;;15.10;75.30;;;;;;4095905;28;20058;-68
2022/01/08 01:01:37;;;;;;;4.88;1.40;;;15.20;74.10;;;;;;4095819;28;20106;-67
2022/01/08 01:04:00;;;;;;;2.03;1.20;;;15.30;73.70;;;;;;4095613;28;20051;-66
2022/01/08 01:06:23;;;;;;;1.52;1.10;;;15.40;73.30;;;;;;4099296;28;20475;-67
2022/01/08 01:08:46;;;;;;;2.30;1.00;;;15.50;72.90;;;;;;4111744;28;20101;-67
2022/01/08 01:11:09;;;;;;;1.65;1.30;;;15.50;72.70;;;;;;4111671;28;20098;-66
2022/01/08 01:13:32;;;;;;;2.60;1.10;;;15.70;72.30;;;;;;4111326;28;20054;-67
2022/01/08 01:15:57;;;;;;;3.08;1.20;;;15.90;71.60;;;;;;4111458;28;20105;-67
2022/01/08 01:18:20;;;;;;;2.25;1.00;;;15.90;70.70;;;;;;4111414;28;20097;-66
2022/01/08 01:20:43;;;;;;;3.33;1.30;;;16.00;70.30;;;;;;4111535;28;20083;-67
2022/01/08 01:23:11;;;;;;;3.30;1.30;;;16.10;70.10;;;;;;4112753;28;20059;-67
2022/01/08 01:25:38;;;;;;;3.17;1.20;;;16.10;70.10;;;;;;4111079;28;20050;-67
2022/01/08 01:28:10;;;;;;;2.15;1.23;;;16.10;70.10;;;;;;4111282;28;20109;-67
2022/01/08 01:41:23;;;;;;;1.65;1.05;;;15.90;70.00;;;;;;4110398;28;20503;-67
2022/01/08 01:49:09;;;;;;;3.10;1.02;;;15.80;70.90;;;;;;4094268;28;20055;-68
2022/01/08 01:51:32;;;;;;;2.30;1.17;;;15.80;71.80;;;;;;4097764;28;20102;-68
2022/01/08 01:53:55;;;;;;;1.20;1.10;;;15.80;71.50;;;;;;4124854;28;20092;-68
2022/01/08 01:56:20;;;;;;;4.68;1.75;;;15.80;70.40;;;;;;4111008;28;20046;-67
2022/01/08 01:58:42;;;;;;;2.85;1.23;;;15.80;70.80;;;;;;4111320;28;20113;-68
2022/01/08 02:01:05;;;;;;;2.30;1.33;;;15.80;70.70;;;;;;4110520;28;20046;-68
2022/01/08 02:03:28;;;;;;;2.63;1.48;;;15.80;70.60;;;;;;4125357;28;20054;-68
2022/01/08 02:05:53;;;;;;;3.00;1.10;;;15.80;70.40;;;;;;4126597;28;20058;-68
2022/01/08 02:08:16;;;;;;;1.58;0.98;;;15.80;70.40;;;;;;4126274;28;20054;-68
2022/01/08 02:10:39;;;;;;;2.85;1.55;;;15.80;70.50;;;;;;4119276;28;20268;-68
2022/01/08 02:13:02;;;;;;;3.70;1.20;;;15.70;70.50;;;;;;4125394;28;20096;-68
2022/01/08 02:15:25;;;;;;;4.63;1.73;;;15.70;70.50;;;;;;4126540;28;20046;-68
2022/01/08 02:17:49;;;;;;;5.13;1.70;;;15.70;71.60;;;;;;4126850;28;20489;-68
2022/01/08 02:20:14;;;;;;;3.13;1.42;;;15.60;70.90;;;;;;4126460;28;20124;-68
2022/01/08 02:22:37;;;;;;;1.92;1.10;;;15.60;71.20;;;;;;4115378;28;20054;-68
2022/01/08 02:25:00;;;;;;;2.20;1.40;;;15.60;71.40;;;;;;4101313;28;20050;-64
2022/01/08 02:27:23;;;;;;;3.35;1.48;;;15.60;71.30;;;;;;4118394;28;20050;-64
2022/01/08 02:29:48;;;;;;;3.53;1.40;;;15.50;71.30;;;;;;4109381;28;20101;-63
2022/01/08 02:32:15;;;;;;;3.45;1.48;;;15.50;71.50;;;;;;4120138;28;20434;-65
2022/01/08 02:34:40;;;;;;;2.88;1.50;;;15.50;71.50;;;;;;4124121;28;21784;-64
2022/01/08 02:37:06;;;;;;;1.55;1.35;;;15.60;71.60;;;;;;4126148;28;20050;-64
2022/01/08 02:39:30;;;;;;;2.33;1.40;;;15.70;71.20;;;;;;4126234;28;20046;-65
2022/01/08 02:41:57;;;;;;;3.28;1.95;;;15.80;71.00;;;;;;4117630;28;20047;-64
2022/01/08 02:44:20;;;;;;;1.98;1.63;;;15.80;70.60;;;;;;4110177;28;20455;-64
2022/01/08 02:46:43;;;;;;;3.53;1.58;;;15.90;70.30;;;;;;4110059;28;20475;-64
2022/01/08 02:49:06;;;;;;;4.10;1.80;;;15.90;70.10;;;;;;4110322;28;20050;-64
2022/01/08 02:51:31;;;;;;;2.70;1.95;;;15.90;70.00;;;;;;4119510;28;20093;-64
2022/01/08 02:53:55;;;;;;;3.25;1.63;;;15.90;69.90;;;;;;4129936;28;20104;-64
2022/01/08 02:56:18;;;;;;;2.92;1.80;;;15.80;69.90;;;;;;4129356;28;20117;-64
2022/01/08 02:58:41;;;;;;;4.15;1.88;;;15.80;70.30;;;;;;4120036;28;20046;-65
2022/01/08 03:01:04;;;;;;;3.33;1.90;;;15.80;70.40;;;;;;4116483;28;20046;-64
2022/01/08 03:03:27;;;;;;;3.65;1.90;;;15.80;70.40;;;;;;4141263;28;20069;-65
2022/01/08 03:05:50;;;;;;;3.65;1.83;;;15.80;70.40;;;;;;4129280;28;20058;-65
2022/01/08 03:08:13;;;;;;;5.28;1.90;;;15.80;70.20;;;;;;4129020;28;20050;-64
2022/01/08 03:10:38;;;;;;;2.88;1.88;;;15.80;70.60;;;;;;4129383;28;20093;-65
2022/01/08 03:13:02;;;;;;;7.85;2.05;;;15.80;70.40;;;;;;4097371;28;20106;-64
2022/01/08 03:15:25;;;;;;;1.92;1.70;;;15.80;70.30;;;;;;4112554;28;20051;-64
2022/01/08 03:17:49;;;;;;;1.95;1.60;;;15.80;70.10;;;;;;4113255;28;20051;-65
2022/01/08 03:20:14;;;;;;;3.75;2.03;;;15.80;70.20;;;;;;4110609;28;20050;-65
2022/01/08 03:22:38;;;;;;;2.80;1.80;;;15.70;70.40;;;;;;4096779;28;20051;-65
2022/01/08 03:25:02;;;;;;;3.25;1.95;;;15.60;70.70;;;;;;4097035;28;20113;-64
2022/01/08 03:27:26;;;;;;;4.05;1.88;;;15.60;70.90;;;;;;4096774;28;20501;-64
2022/01/08 03:29:49;;;;;;;1.67;1.52;;;15.50;72.10;;;;;;4102481;28;20050;-64
2022/01/08 03:32:12;;;;;;;3.47;1.50;;;15.50;71.70;;;;;;4112971;28;20519;-64
2022/01/08 03:34:35;;;;;;;3.45;1.70;;;15.60;71.60;;;;;;4112387;28;20054;-64
2022/01/08 03:36:59;;;;;;;1.55;1.45;;;15.70;71.20;;;;;;4112658;28;20085;-64
2022/01/08 03:39:22;;;;;;;4.82;1.73;;;15.80;70.90;;;;;;4112685;28;20058;-64
2022/01/08 03:41:45;;;;;;;3.15;1.42;;;15.80;70.40;;;;;;4123686;28;20093;-64
2022/01/08 03:44:09;;;;;;;2.30;1.60;;;15.90;70.40;;;;;;4128485;28;20104;-64
2022/01/08 03:46:35;;;;;;;4.50;1.27;;;15.90;70.30;;;;;;4118147;28;20059;-64
2022/01/08 03:51:40;;;;;;;4.70;1.75;;;16.10;69.40;;;;;;4122762;28;20058;-64
2022/01/08 03:54:03;;;;;;;4.07;1.40;;;16.30;68.90;;;;;;4128162;28;20054;-64
2022/01/08 03:56:27;;;;;;;3.97;1.52;;;16.40;68.30;;;;;;4127630;28;20105;-64
2022/01/08 03:58:50;;;;;;;2.05;1.35;;;16.40;68.10;;;;;;4128543;28;20101;-64
2022/01/08 04:01:14;;;;;;;3.85;1.10;;;16.40;68.00;;;;;;4116087;28;20161;-64
2022/01/08 04:03:37;;;;;;;4.28;2.08;;;16.50;67.70;;;;;;4112258;28;20761;-64
2022/01/08 04:06:00;;;;;;;3.85;1.60;;;16.50;67.30;;;;;;4111935;28;20051;-64
2022/01/08 04:08:23;;;;;;;2.83;1.25;;;16.50;68.00;;;;;;4112557;28;20442;-64
2022/01/08 04:10:47;;;;;;;2.97;1.55;;;16.50;67.20;;;;;;4118067;28;20058;-65
2022/01/08 04:13:13;;;;;;;3.30;1.75;;;16.40;67.40;;;;;;4128176;28;20104;-64
2022/01/08 04:15:39;;;;;;;2.65;1.30;;;16.30;67.70;;;;;;4128522;28;20436;-64
2022/01/08 04:18:03;;;;;;;1.67;1.27;;;16.30;68.20;;;;;;4121411;28;20096;-64
2022/01/08 04:20:26;;;;;;;4.18;1.70;;;16.20;68.30;;;;;;4114756;28;20054;-64
2022/01/08 04:22:51;;;;;;;1.83;1.40;;;16.20;68.20;;;;;;4111668;28;20463;-64
2022/01/08 04:25:14;;;;;;;3.40;1.38;;;16.20;68.00;;;;;;4112079;28;20102;-64
2022/01/08 04:27:38;;;;;;;5.03;1.50;;;16.20;67.90;;;;;;4110678;28;20038;-64
2022/01/08 04:30:00;;;;;;;1.20;1.00;;;16.10;67.70;;;;;;4124670;28;20050;-64
2022/01/08 04:32:24;;;;;;;1.88;1.10;;;16.10;68.10;;;;;;4127938;28;20450;-64
2022/01/08 04:34:48;;;;;;;2.53;1.30;;;16.00;68.60;;;;;;4111211;28;20097;-64
2022/01/08 04:37:11;;;;;;;1.50;1.10;;;15.90;69.20;;;;;;4111958;28;20550;-65
2022/01/08 04:39:34;;;;;;;2.60;1.20;;;16.00;69.30;;;;;;4127089;28;20110;-64
2022/01/08 04:41:57;;;;;;;3.65;1.40;;;16.10;68.90;;;;;;4127478;28;20100;-65
2022/01/08 04:44:20;;;;;;;2.75;1.23;;;16.10;68.40;;;;;;4127836;28;20058;-64
2022/01/08 04:46:43;;;;;;;2.40;1.05;;;16.20;68.40;;;;;;4127789;28;20054;-64
2022/01/08 04:49:07;;;;;;;4.10;1.25;;;16.20;68.10;;;;;;4113725;28;20054;-65
2022/01/08 04:51:31;;;;;;;6.32;1.02;;;16.20;67.90;;;;;;4111654;28;20105;-64
2022/01/08 04:53:54;;;;;;;3.38;1.02;;;16.20;67.90;;;;;;4111870;28;20458;-64
2022/01/08 04:56:17;;;;;;;2.55;1.02;;;16.10;67.80;;;;;;4111771;28;20065;-64
2022/01/08 04:58:40;;;;;;;2.28;0.60;;;16.10;68.10;;;;;;4120859;28;20071;-64
2022/01/08 05:01:04;;;;;;;3.08;1.10;;;16.00;68.40;;;;;;4127505;28;20054;-63
2022/01/08 05:03:27;;;;;;;1.88;1.10;;;15.90;68.80;;;;;;4127507;28;20109;-64
2022/01/08 05:05:50;;;;;;;2.83;0.80;;;15.90;69.30;;;;;;4117469;28;20431;-65
2022/01/08 05:08:14;;;;;;;2.72;0.85;;;15.90;69.30;;;;;;4118372;28;20058;-64
2022/01/08 05:10:37;;;;;;;2.40;1.05;;;15.90;69.30;;;;;;4127158;28;20167;-63
2022/01/08 05:13:04;;;;;;;2.13;0.90;;;15.90;69.20;;;;;;4126928;28;20543;-63
2022/01/08 05:15:27;;;;;;;2.95;0.88;;;15.80;69.20;;;;;;4127444;28;20101;-67
2022/01/08 05:17:54;;;;;;;4.88;1.00;;;15.80;69.20;;;;;;4126643;28;20046;-67
2022/01/08 05:20:17;;;;;;;3.05;0.90;;;15.80;69.20;;;;;;4127613;28;20487;-67
2022/01/08 05:22:51;;;;;;;5.00;1.15;;;15.80;69.40;;;;;;4123752;28;20551;-67
2022/01/08 05:25:16;;;;;;;3.85;1.02;;;15.80;69.50;;;;;;4110446;28;20050;-67
2022/01/08 05:27:39;;;;;;;4.43;0.98;;;15.80;69.80;;;;;;4117058;28;20101;-68
2022/01/08 05:30:01;;;;;;;1.23;0.70;;;15.80;69.80;;;;;;4127385;28;20116;-68
2022/01/08 05:32:25;;;;;;;1.90;0.93;;;15.90;69.60;;;;;;4127322;28;20058;-68
2022/01/08 05:34:49;;;;;;;2.25;0.88;;;16.00;69.00;;;;;;4127283;28;20450;-68
2022/01/08 05:37:12;;;;;;;7.50;1.17;;;16.10;68.40;;;;;;4121259;28;20047;-68
2022/01/08 05:39:35;;;;;;;2.35;0.90;;;16.20;68.20;;;;;;4111255;28;20439;-68
2022/01/08 05:42:00;;;;;;;1.90;0.95;;;16.20;68.10;;;;;;4110960;28;20180;-68
2022/01/08 05:44:22;;;;;;;3.17;0.90;;;16.20;67.90;;;;;;4109422;28;20063;-68
2022/01/08 05:46:47;;;;;;;3.22;1.10;;;16.20;67.80;;;;;;4120808;28;20100;-68
2022/01/08 05:49:10;;;;;;;1.55;0.70;;;16.20;67.80;;;;;;4125929;28;20053;-67
2022/01/08 05:51:33;;;;;;;2.25;0.88;;;16.20;68.10;;;;;;4127142;28;20054;-67
2022/01/08 05:53:56;;;;;;;4.60;0.90;;;16.20;68.20;;;;;;4116980;28;20539;-68
2022/01/08 05:56:21;;;;;;;2.42;0.85;;;16.20;68.10;;;;;;4110985;28;20047;-68
2022/01/08 05:58:45;;;;;;;2.92;1.05;;;16.30;68.00;;;;;;4109984;28;20050;-67
2022/01/08 06:01:09;;;;;;;2.03;0.77;;;16.30;67.60;;;;;;4110758;28;20483;-68
2022/01/08 06:03:31;;;;;;;3.85;1.00;;;16.30;67.40;;;;;;4110902;28;20046;-67
2022/01/08 06:05:55;;;;;;;2.78;0.82;;;16.30;68.50;;;;;;4114574;28;20060;-67
2022/01/08 06:08:18;;;;;;;5.35;1.95;;;16.20;67.50;;;;;;4127062;28;20054;-67
2022/01/08 06:10:41;;;;;;;1.65;0.60;;;16.20;67.70;;;;;;4109762;28;20542;-67
2022/01/08 06:13:04;;;;;;;1.63;1.30;;;16.10;67.70;;;;;;4110637;28;20055;-68
2022/01/08 06:15:29;;;;;;;3.38;0.90;;;16.10;68.20;;;;;;4113556;28;20446;-68
2022/01/08 06:17:52;;;;;;;1.60;0.85;;;16.10;68.50;;;;;;4126717;28;20101;-67
2022/01/08 06:20:15;;;;;;;1.90;1.02;;;16.10;68.50;;;;;;4126985;28;20494;-67
2022/01/08 06:22:38;;;;;;;4.05;1.00;;;16.10;68.30;;;;;;4126224;28;20394;-68
2022/01/08 06:25:01;;;;;;;3.63;0.82;;;16.10;68.10;;;;;;4119125;28;20125;-67
2022/01/08 06:27:24;;;;;;;2.10;1.08;;;16.10;69.20;;;;;;4116879;28;20427;-67
2022/01/08 06:29:47;;;;;;;1.95;1.20;;;16.00;68.30;;;;;;4126338;28;20109;-67
2022/01/08 06:32:11;;;;;;;1.85;1.50;;;15.90;68.40;;;;;;4126324;28;20105;-67
2022/01/08 06:34:34;;;;;;;1.90;1.23;;;15.90;68.60;;;;;;4126497;28;20050;-67
2022/01/08 06:36:58;;;;;;;3.78;1.65;;;15.80;69.10;;;;;;4097617;28;20051;-68
2022/01/08 06:39:21;;;;;;;3.60;1.60;;;15.80;69.40;;;;;;4126387;28;20042;-66
2022/01/08 06:41:44;;;;;;;4.22;1.77;;;15.80;69.60;;;;;;4113080;28;20557;-66
2022/01/08 06:44:08;;;;;;;3.60;1.48;;;15.80;69.40;;;;;;4110526;28;20094;-65
2022/01/08 06:46:31;;;;;;;2.72;1.77;;;15.90;69.40;;;;;;4110034;28;20058;-65
2022/01/08 06:48:55;;;;;;;4.53;2.20;;;15.90;69.00;;;;;;4094472;28;20078;-65
2022/01/08 06:51:18;;;;;;;3.13;2.25;;;16.00;68.90;;;;;;4094796;28;20103;-66
2022/01/08 06:53:41;;;;;;;3.58;2.15;;;16.10;68.50;;;;;;4094897;28;20047;-66
2022/01/08 06:56:05;;;;;;;10.30;2.33;;;16.10;68.10;;;;;;4106883;28;20110;-66
2022/01/08 06:58:28;;;;;;;5.72;2.30;;;16.10;68.00;;;;;;4110566;28;20106;-66
2022/01/08 07:00:51;;;;;;;5.10;3.13;;;16.10;68.00;;;;;;4110375;28;20143;-66
2022/01/08 07:03:15;;;;;;;6.53;2.53;;;16.10;68.00;;;;;;4110270;28;20047;-64
2022/01/08 07:05:39;;;;;;;9.45;2.67;;;16.20;68.10;;;;;;4118021;28;20105;-63
2022/01/08 07:08:02;;;;;;;6.65;2.67;;;16.20;67.90;;;;;;4126138;28;20121;-63
2022/01/08 07:10:25;;;;;;;5.43;2.60;;;16.40;67.50;;;;;;4124796;28;20092;-65
2022/01/08 07:12:48;;;;;;;7.15;2.80;;;16.50;66.90;;;;;;4116260;28;20046;-63
2022/01/08 07:15:12;;;;;;;9.35;3.00;;;16.60;66.70;;;;;;4116941;28;20051;-63
2022/01/08 07:17:36;;;;;;;4.55;2.40;;;16.70;66.40;;;;;;4126502;28;20105;-64
2022/01/08 07:19:58;;;;;;;6.43;2.67;;;16.70;65.90;;;;;;4126491;28;20050;-63
2022/01/08 07:22:23;;;;;;;4.78;2.30;;;16.70;66.00;;;;;;4126004;28;20092;-64
2022/01/08 07:24:46;;;;;;;9.50;2.40;;;16.60;66.00;;;;;;4122577;28;20077;-63
2022/01/08 07:27:09;;;;;;;6.68;2.72;;;16.60;66.10;;;;;;4109923;28;20097;-64
2022/01/08 07:29:31;;;;;;;6.57;2.60;;;16.60;66.10;;;;;;4109586;28;20058;-63
2022/01/08 07:31:54;;;;;;;9.07;2.42;;;16.50;66.10;;;;;;4109836;28;20464;-64
2022/01/08 07:34:18;;;;;;;7.85;3.20;;;16.50;66.30;;;;;;4111773;28;20777;-63
2022/01/08 07:36:41;;;;;;;5.25;3.00;;;16.40;66.60;;;;;;4127379;28;20050;-63
2022/01/08 07:39:06;;;;;;;6.28;2.65;;;16.40;66.80;;;;;;4129347;28;20050;-63
2022/01/08 07:41:28;;;;;;;6.65;2.67;;;16.30;66.90;;;;;;4128311;28;20553;-63
2022/01/08 07:43:52;;;;;;;6.60;2.58;;;16.20;67.40;;;;;;4096835;28;20047;-63
2022/01/08 07:46:15;;;;;;;7.45;2.92;;;16.20;67.60;;;;;;4096438;28;20055;-63
2022/01/08 07:48:38;;;;;;;7.45;3.05;;;16.20;67.50;;;;;;4105483;28;20070;-64
2022/01/08 07:51:01;;;;;;;5.60;2.70;;;16.20;67.30;;;;;;4112693;28;20054;-63
2022/01/08 07:53:24;;;;;;;5.80;3.20;;;16.30;67.30;;;;;;4115900;28;20046;-63
2022/01/08 07:55:49;;;;;;;7.00;2.75;;;16.30;67.40;;;;;;4112506;28;20059;-63
2022/01/08 07:58:12;;;;;;;5.75;2.63;;;16.30;67.00;;;;;;4117104;28;20051;-63
2022/01/08 08:00:34;;;;;;;4.65;2.47;;;16.40;66.80;;;;;;4096349;28;20110;-63
2022/01/08 08:02:57;;;;;;;5.70;2.67;;;16.50;65.60;;;;;;4096606;28;20055;-62
2022/01/08 08:05:21;;;;;;;6.60;2.97;;;16.60;64.60;;;;;;4126585;28;20054;-63
2022/01/08 08:07:44;;;;;;;3.15;1.63;;;16.60;63.40;;;;;;4128740;28;20050;-63
2022/01/08 08:10:10;;;;;;;6.70;2.55;;;16.60;64.00;;;;;;4113340;28;20051;-64
2022/01/08 08:12:34;;;;;;;8.70;2.88;;;16.60;65.40;;;;;;4116203;28;20046;-63
2022/01/08 08:14:57;;;;;;;4.35;2.15;;;16.60;64.10;;;;;;4126575;28;20104;-62
2022/01/08 08:17:20;;;;;;;6.85;2.78;;;16.60;64.00;;;;;;4122147;28;20427;-63
2022/01/08 08:19:43;;;;;;;6.07;3.10;;;16.50;64.20;;;;;;4112166;28;20434;-63
2022/01/08 08:22:06;;;;;;;8.55;2.80;;;16.50;64.10;;;;;;4112202;28;20562;-63
2022/01/08 08:24:29;;;;;;;8.77;3.10;;;16.50;63.30;;;;;;4115515;28;20058;-63
2022/01/08 08:26:53;;;;;;;4.47;2.63;;;16.50;63.10;;;;;;4114813;28;20097;-63
2022/01/08 08:29:17;;;;;;;4.78;2.47;;;16.50;62.70;;;;;;4121184;28;20050;-63
2022/01/08 08:31:40;;;;;;;7.80;3.00;;;16.50;62.60;;;;;;4112298;28;20097;-64
2022/01/08 08:34:04;;;;;;;7.10;2.47;;;16.40;62.50;;;;;;4117457;28;20054;-63
2022/01/08 08:36:27;;;;;;;4.57;2.20;;;16.40;62.20;;;;;;4111956;28;20051;-63
2022/01/08 08:38:50;;;;;;;6.93;2.47;;;16.40;62.10;;;;;;4127694;28;20054;-63
2022/01/08 08:41:13;;;;;;;8.90;2.80;;;16.30;61.90;;;;;;4111408;28;20106;-63
2022/01/08 08:43:36;;;;;;;7.47;2.70;;;16.30;61.80;;;;;;4102166;28;20051;-64
2022/01/08 08:46:00;;;;;;;4.63;2.20;;;16.20;61.80;;;;;;4127476;28;20108;-63
2022/01/08 08:48:23;;;;;;;6.20;2.63;;;16.20;61.90;;;;;;4117137;28;20051;-62
2022/01/08 08:50:46;;;;;;;5.78;2.30;;;16.10;61.80;;;;;;4111485;28;20055;-63
2022/01/08 08:53:10;;;;;;;5.65;3.03;;;16.10;61.50;;;;;;4112728;28;20102;-62
2022/01/08 08:55:33;;;;;;;7.05;2.72;;;16.20;60.80;;;;;;4112549;28;20046;-64
2022/01/08 08:57:56;;;;;;;9.25;2.22;;;16.30;60.10;;;;;;4109118;28;20105;-63
2022/01/08 09:00:19;;;;;;;8.10;2.33;;;16.30;60.10;;;;;;4096022;28;20117;-63
2022/01/08 09:02:43;;;;;;;8.07;3.17;;;16.20;59.80;;;;;;4104088;28;20160;-64
2022/01/08 09:05:07;;;;;;;7.97;3.60;;;16.20;59.60;;;;;;4112687;28;20098;-64
2022/01/08 09:07:30;;;;;;;12.48;3.78;;;16.20;59.80;;;;;;4110881;28;20105;-63
2022/01/08 09:09:54;;;;;;;9.82;3.22;;;16.10;59.70;;;;;;4113389;28;20090;-65
2022/01/08 09:12:17;;;;;;;6.53;2.33;;;16.00;59.70;;;;;;4127253;28;20101;-63
2022/01/08 09:14:40;;;;;;;5.60;2.85;;;15.90;59.90;;;;;;4114117;28;20051;-64
2022/01/08 09:17:04;;;;;;;9.25;3.00;;;15.90;59.80;;;;;;4112325;28;20050;-64
2022/01/08 09:19:29;;;;;;;9.43;3.38;;;15.80;59.80;;;;;;4103762;28;20051;-64
2022/01/08 09:21:53;;;;;;;7.75;2.95;;;15.70;59.70;;;;;;4125916;28;20058;-63
2022/01/08 09:24:19;;;;;;;7.07;2.38;;;15.70;60.80;;;;;;4126407;28;20046;-64
2022/01/08 09:26:42;;;;;;;10.05;2.30;;;15.60;60.00;;;;;;4125140;28;20046;-65
2022/01/08 09:29:05;;;;;;;8.80;2.95;;;15.60;59.90;;;;;;4125828;28;20062;-64
2022/01/08 09:31:28;;;;;;;2.95;2.13;;;15.60;59.60;;;;;;4127089;28;20097;-65
2022/01/08 09:33:51;;;;;;;3.75;2.63;;;15.60;59.30;;;;;;4113501;28;20113;-65
2022/01/08 09:36:16;;;;;;;7.30;2.65;;;15.60;59.30;;;;;;4111102;28;20103;-64
2022/01/08 09:38:39;;;;;;;6.57;2.47;;;15.60;59.20;;;;;;4112123;28;20046;-65
2022/01/08 09:41:02;;;;;;;5.15;2.35;;;15.70;59.00;;;;;;4116744;28;20042;-64
2022/01/08 09:43:26;;;;;;;8.50;2.72;;;15.80;58.80;;;;;;4112325;28;20097;-64
2022/01/08 09:45:49;;;;;;;7.10;2.50;;;15.80;58.60;;;;;;4120538;28;20101;-65
2022/01/08 09:48:12;;;;;;;8.85;3.67;;;15.80;58.80;;;;;;4111104;28;20483;-64
2022/01/08 09:50:35;;;;;;;8.35;2.92;;;15.80;58.90;;;;;;4095292;28;20079;-65
2022/01/08 09:53:01;;;;;;;6.03;2.92;;;15.70;58.90;;;;;;4101111;28;20047;-65
2022/01/08 09:55:24;;;;;;;7.03;1.98;;;15.70;58.90;;;;;;4110644;28;20054;-64
2022/01/08 09:57:48;;;;;;;8.70;2.53;;;15.70;59.00;;;;;;4115588;28;20533;-64
2022/01/08 10:00:14;;;;;;;6.93;2.40;;;15.60;59.20;;;;;;4112337;28;20101;-64
2022/01/08 10:02:37;;;;;;;5.05;2.08;;;15.60;59.20;;;;;;4110692;28;21996;-63
2022/01/08 10:05:09;;;;;;;7.25;2.33;;;15.70;59.20;;;;;;4110884;28;20043;-64
2022/01/08 10:07:32;;;;;;;5.95;2.25;;;15.90;58.80;;;;;;4111228;28;20055;-63
2022/01/08 10:10:10;;;;;;;4.43;2.15;;;16.30;57.90;;;;;;4099394;28;20077;-63
2022/01/08 10:12:43;;;;;;;3.63;2.42;;;16.80;56.60;;;;;;4119105;28;20043;-63
2022/01/08 10:17:49;;;;;;;3.83;2.17;;;17.70;54.20;;;;;;4109923;28;20054;-64
2022/01/08 10:20:13;;;;;;;8.88;2.65;;;18.00;53.30;;;;;;4110224;28;20384;-64
2022/01/08 10:22:36;;;;;;;7.43;2.17;;;18.20;52.80;;;;;;4110825;28;20419;-64
2022/01/08 10:25:12;;;;;;;7.32;2.97;;;18.30;52.50;;;;;;4108288;28;20058;-64
2022/01/08 10:27:36;;;;;;;7.57;2.58;;;18.30;52.50;;;;;;4109046;28;20050;-63
2022/01/08 10:29:58;;;;;;;5.50;2.45;;;18.20;53.20;;;;;;4109830;28;20046;-64
2022/01/08 10:32:27;;;;;;;5.63;3.10;;;18.20;52.60;;;;;;4110174;28;20054;-64
2022/01/08 10:34:50;;;;;;;7.18;2.50;;;18.10;53.00;;;;;;4111002;28;20050;-64
2022/01/08 10:37:13;;;;;;;4.55;2.60;;;17.90;53.20;;;;;;4121563;28;20490;-64
2022/01/08 10:39:39;;;;;;;7.05;2.50;;;17.80;54.30;;;;;;4094298;28;20047;-64
2022/01/08 10:42:12;;;;;;;9.70;3.22;;;17.70;53.50;;;;;;4095015;28;20043;-64
2022/01/08 10:44:35;;;;;;;5.55;2.33;;;17.70;53.50;;;;;;4119925;28;20089;-64
2022/01/08 10:47:01;;;;;;;4.03;2.33;;;17.70;53.60;;;;;;4126104;28;20077;-63
2022/01/08 10:49:32;;;;;;;7.15;2.60;;;17.70;53.50;;;;;;4125429;28;20434;-63
2022/01/08 10:51:57;;;;;;;6.00;2.47;;;17.70;53.10;;;;;;4101228;28;20190;-63
2022/01/08 10:54:26;;;;;;;8.75;3.33;;;17.60;53.20;;;;;;4103695;28;20070;-63
2022/01/08 10:56:51;;;;;;;5.88;3.20;;;17.60;53.00;;;;;;4109599;28;20055;-64
2022/01/08 10:59:20;;;;;;;5.75;2.60;;;17.60;53.10;;;;;;4111498;28;20050;-62
2022/01/08 11:01:52;;;;;;;6.65;2.80;;;17.60;53.90;;;;;;4124188;28;20050;-66
2022/01/08 11:04:17;;;;;;;6.57;3.30;;;17.60;54.50;;;;;;4124382;28;20057;-66
2022/01/08 11:06:57;;;;;;;12.90;2.72;;;17.60;55.10;;;;;;4126341;28;20104;-66
2022/01/08 11:09:20;;;;;;;5.10;2.63;;;17.60;55.40;;;;;;4117951;28;20051;-65
2022/01/08 11:11:45;;;;;;;6.13;2.63;;;17.60;55.60;;;;;;4127701;28;20105;-65
2022/01/08 11:14:09;;;;;;;6.47;2.95;;;17.60;55.70;;;;;;4116449;28;20110;-64
2022/01/08 11:16:34;;;;;;;6.35;3.00;;;17.70;55.90;;;;;;4113415;28;20054;-64
2022/01/08 11:18:59;;;;;;;8.15;3.10;;;17.70;56.10;;;;;;4123109;28;20171;-65
2022/01/08 11:21:23;;;;;;;7.20;2.72;;;17.80;56.20;;;;;;4117879;28;20117;-64
2022/01/08 11:23:46;;;;;;;10.43;3.25;;;17.80;56.00;;;;;;4111050;28;20055;-65
2022/01/08 11:26:10;;;;;;;5.78;2.58;;;17.90;55.80;;;;;;4113307;28;20055;-65
2022/01/08 11:28:37;;;;;;;5.50;2.70;;;18.10;55.90;;;;;;4114332;28;20101;-65
2022/01/08 11:31:03;;;;;;;5.30;2.67;;;18.10;56.30;;;;;;4112064;28;20047;-65
2022/01/08 11:33:31;;;;;;;6.07;2.72;;;18.20;56.30;;;;;;4112329;28;20101;-65
2022/01/08 11:35:56;;;;;;;6.05;3.03;;;18.20;56.40;;;;;;4112175;28;20106;-65
2022/01/08 11:38:22;;;;;;;10.73;4.53;;;18.10;56.80;;;;;;4112240;28;20050;-64
2022/01/08 11:40:47;;;;;;;7.97;3.25;;;18.10;57.20;;;;;;4112112;28;20495;-65
2022/01/08 11:43:11;;;;;;;8.60;4.53;;;18.10;57.50;;;;;;4112935;28;20051;-65
2022/01/08 11:45:36;;;;;;;5.50;4.63;;;18.10;57.60;;;;;;4125251;28;20059;-65
2022/01/08 11:48:03;;;;;;;7.50;3.50;;;18.20;57.70;;;;;;4113929;28;20101;-64
2022/01/08 11:50:29;;;;;;;8.82;3.40;;;18.20;57.60;;;;;;4109717;28;20436;-65
2022/01/08 11:53:17;;;;;;;9.98;3.55;;;18.30;57.60;;;;;;4103693;28;20046;-65
2022/01/08 11:55:40;;;;;;;7.93;4.15;;;18.40;57.60;;;;;;4112164;28;20058;-65
2022/01/08 11:58:15;;;;;;;7.25;3.40;;;18.40;57.60;;;;;;4127327;28;20073;-65
2022/01/08 12:00:49;;;;;;;7.95;3.80;;;18.50;57.50;;;;;;4128189;28;20077;-65
2022/01/08 12:03:21;;;;;;;7.20;3.78;;;18.50;57.40;;;;;;4128306;28;20083;-65
2022/01/08 12:05:46;;;;;;;9.07;3.95;;;18.50;58.10;;;;;;4126576;28;20104;-65
2022/01/08 12:08:15;;;;;;;8.65;3.70;;;18.40;57.80;;;;;;4128382;28;20042;-64
2022/01/08 12:10:55;;;;;;;8.77;3.85;;;18.30;58.10;;;;;;4128180;28;20050;-65
2022/01/08 12:13:45;;;;;;;5.32;4.03;;;18.20;58.20;;;;;;4127698;28;20085;-65
2022/01/08 12:16:34;;;;;;;9.55;3.80;;;18.20;58.50;;;;;;4125408;28;20120;-65
2022/01/08 12:18:57;;;;;;;6.97;3.50;;;18.20;58.70;;;;;;4127192;28;20096;-65
2022/01/08 12:21:32;;;;;;;7.10;3.60;;;18.20;58.70;;;;;;4128367;28;20050;-65
2022/01/08 12:23:55;;;;;;;6.93;3.53;;;18.20;58.40;;;;;;4126364;28;20051;-65
2022/01/08 12:26:38;;;;;;;5.95;3.60;;;18.20;58.50;;;;;;4128127;28;20058;-65
2022/01/08 12:29:01;;;;;;;9.65;3.92;;;18.10;58.40;;;;;;4126094;28;20545;-64
2022/01/08 12:31:31;;;;;;;5.90;4.25;;;18.10;58.70;;;;;;4128092;28;20406;-64
2022/01/08 12:34:37;;;;;;;7.78;3.83;;;18.00;58.90;;;;;;4127941;28;20100;-66
2022/01/08 12:37:03;;;;;;;8.70;3.63;;;17.90;58.90;;;;;;4127400;28;20054;-65
2022/01/08 12:39:48;;;;;;;7.88;3.97;;;17.80;59.60;;;;;;4127823;28;20050;-66
2022/01/08 12:42:39;;;;;;;9.27;3.85;;;17.70;59.70;;;;;;4127517;28;20105;-65
2022/01/08 12:45:04;;;;;;;8.18;3.63;;;17.70;59.70;;;;;;4127553;28;20042;-64
2022/01/08 12:47:45;;;;;;;7.03;3.90;;;17.70;59.70;;;;;;4127885;28;20054;-63
2022/01/08 12:50:33;;;;;;;7.47;3.60;;;17.70;59.70;;;;;;4127193;28;20054;-66
2022/01/08 12:53:21;;;;;;;8.27;4.05;;;17.70;59.60;;;;;;4127258;28;20046;-66
2022/01/08 12:56:09;;;;;;;7.90;4.60;;;17.60;59.50;;;;;;4127238;28;20046;-65